• Join FlightAware (Why Join?)
  • Login
  • US Flag 
09:56AM EDT


 

Airport Tracker/Info


-or-


 

Live Flight TrackerFlight Track Log ✈ LBQ782 ✈ 02-Jul-2013 ✈ KCAE - KLZU

Flight Track Log - Related Links

Times and Time Zones

All times are in EDT time to prevent confusion due to time zone crossing. See the LBQ782 flight status page for this flight to view local times or setup timezone preferences in your user account.

Time Position Orientation Groundspeed Altitude Reporting Facility
EDT Latitude Longitude Course Direction KTS MPH feet Rate Location/Type
12:07AM 33.9386 -81.4540 273° West  Level FlightAware Approximate
12:08AM 33.9407 -81.5097 273° West  Level FlightAware Approximate
12:09AM 33.9427 -81.5655 273° West  Level FlightAware Approximate
12:10AM 33.9448 -81.6212 273° West  Level FlightAware Approximate
12:11AM 33.9468 -81.6769 273° West  Level FlightAware Approximate
12:12AM 33.9488 -81.7327 272° West  Level FlightAware Approximate
12:13AM 33.9500 -81.7884 270° West  Level FlightAware Approximate
12:14AM 33.9500 -81.8442 270° West  Level FlightAware Approximate
12:15AM 33.9500 -81.9000 270° West  Level FlightAware Approximate
12:16AM 33.9460 -81.9532 214° Southwest  Level FlightAware Approximate
12:17AM 33.9075 -81.9841 214° Southwest  Level FlightAware Approximate
12:18AM 33.8690 -82.0150 214° Southwest  Level FlightAware Approximate
12:19AM 33.8304 -82.0458 214° Southwest  Level FlightAware Approximate
12:20AM 33.7919 -82.0767 214° Southwest  Level FlightAware Approximate
12:21AM 33.7533 -82.1075 214° Southwest  Level FlightAware Approximate
12:22AM 33.7148 -82.1382 214° Southwest  Level FlightAware Approximate
12:23AM 33.7067 -82.1834 284° West  Level FlightAware Approximate
12:24AM 33.7176 -82.2374 284° West  Level FlightAware Approximate
12:25AM 33.7284 -82.2915 284° West  Level FlightAware Approximate
12:26AM 33.7393 -82.3456 284° West  Level FlightAware Approximate
12:27AM 33.7500 -82.3997 284° West  Level FlightAware Approximate
12:28AM 33.7608 -82.4539 283° West  Level FlightAware Approximate
12:29AM 33.7728 -82.5077 287° West  Level FlightAware Approximate
12:30AM 33.7861 -82.5610 287° West  Level FlightAware Approximate
12:31AM 33.7994 -82.6143 287° West  Level FlightAware Approximate
12:32AM 33.8066 -82.6693 279° West  Level FlightAware Approximate
12:33AM 33.8135 -82.7244 279° West  Level FlightAware Approximate
12:34AM 33.8231 -82.7788 285° West  Level FlightAware Approximate
12:35AM 33.8350 -82.8326 285° West  Level FlightAware Approximate
12:36AM 33.8470 -82.8864 285° West  Level FlightAware Approximate
12:37AM 33.8600 -82.9399 287° West  Level FlightAware Approximate
12:38AM 33.8742 -82.9929 289° West  Level FlightAware Approximate
12:39AM 33.8892 -83.0456 289° West  Level FlightAware Approximate
12:40AM 33.9022 -83.0990 280° West  Level FlightAware Approximate
12:41AM 33.9101 -83.1539 280° West  Level FlightAware Approximate
12:42AM 33.9180 -83.2089 280° West  Level FlightAware Approximate
12:43AM 33.9258 -83.2638 280° West  Level FlightAware Approximate
12:44AM 33.9340 -83.3187 292° West  Level FlightAware Approximate
12:45AM 33.9513 -83.3704 292° West  Level FlightAware Approximate
12:46AM 33.9686 -83.4222 292° West  Level FlightAware Approximate
12:47AM 33.9859 -83.4739 292° West  Level FlightAware Approximate
12:48AM 34.0032 -83.5257 292° West  Level FlightAware Approximate
12:49AM 34.0204 -83.5775 292° West  Level FlightAware Approximate
12:50AM 34.0376 -83.6294 292° West  Level FlightAware Approximate
12:51AM 34.0567 -83.6801 301° West  Level FlightAware Approximate
12:52AM 34.0759 -83.7306 290° West  Level FlightAware Approximate
12:53AM 34.0916 -83.7832 290° West  Level FlightAware Approximate
12:54AM 34.1074 -83.8357 290° West  Level FlightAware Approximate
12:55AM 34.1167 -83.8897 270° West  Level FlightAware Approximate
12:56AM 34.0876 -83.9291 220° Southwest  Level FlightAware Approximate
12:57AM 34.0532 -83.9662 225° Southwest  Level FlightAware Approximate
12:58AM 34.0203 -84.0056 225° Southwest  Level FlightAware Approximate
12:59AM 33.9875 -84.0450 225° Southwest  Level FlightAware Approximate
01:00AM 33.9739 -84.0027 104° East  Level FlightAware Approximate
01:01AM 33.9781 -83.9624 90° East  Level Estimated
01:02AM 33.9781 -83.9624 90° East  Level Estimated
01:03AM 33.9781 -83.9624 90° East  Level Estimated
01:04AM 33.9781 -83.9624 90° East  Level Estimated
01:05AM 33.9781 -83.9624 90° East  Level Estimated
01:06AM 33.9781 -83.9624 90° East  Level Estimated
01:07AM 33.9781 -83.9624 90° East  Level Estimated
01:08AM 33.9781 -83.9624 90° East  Level Estimated
01:09AM 33.9781 -83.9624 90° East  Level Estimated
01:10AM 33.9781 -83.9624 90° East  Level Estimated
01:11AM 33.9781 -83.9624 90° East  Level Estimated
01:12AM 33.9781 -83.9624 90° East  Level Estimated
01:13AM 33.9781 -83.9624 90° East  Level Estimated
01:14AM 33.9781 -83.9624 90° East  Level Estimated
01:15AM 33.9781 -83.9624 90° East  Level Estimated
01:16AM 33.9781 -83.9624 90° East  Level Estimated